createdAt,value
2022-11-24T00:00:12.604Z,1.40
2022-11-24T00:01:17.708Z,1.30
2022-11-24T00:02:19.651Z,1.30
2022-11-24T00:03:21.621Z,1.20
2022-11-24T00:04:23.597Z,1.20
2022-11-24T00:05:25.449Z,1.20
2022-11-24T00:06:29.039Z,1.20
2022-11-24T00:07:31.002Z,1.20
2022-11-24T00:08:33.936Z,1.20
2022-11-24T00:09:35.745Z,1.20
2022-11-24T00:10:37.616Z,1.20
2022-11-24T00:11:39.843Z,1.20
2022-11-24T00:12:41.650Z,1.20
2022-11-24T00:13:44.089Z,1.20
2022-11-24T00:14:47.103Z,1.20
2022-11-24T00:15:49.053Z,1.20
2022-11-24T00:16:50.958Z,1.20
2022-11-24T00:17:53.112Z,1.10
2022-11-24T00:18:56.824Z,1.20
2022-11-24T00:19:58.701Z,1.20
2022-11-24T00:21:00.822Z,1.20
2022-11-24T00:22:02.649Z,1.20
2022-11-24T00:23:04.500Z,1.20
2022-11-24T00:24:06.906Z,1.20
2022-11-24T00:25:08.868Z,1.20
2022-11-24T00:26:13.552Z,1.20
2022-11-24T00:27:15.378Z,1.20
2022-11-24T00:28:17.214Z,1.30
2022-11-24T00:29:19.069Z,1.30
2022-11-24T00:30:20.944Z,1.30
2022-11-24T00:31:34.413Z,1.40
2022-11-24T00:32:36.283Z,1.40
2022-11-24T00:33:38.099Z,1.40
2022-11-24T00:34:39.957Z,1.40
2022-11-24T00:35:41.801Z,1.50
2022-11-24T00:36:43.892Z,1.40
2022-11-24T00:37:45.707Z,1.50
2022-11-24T00:38:48.011Z,1.50
2022-11-24T00:39:49.923Z,1.50
2022-11-24T00:40:52.251Z,1.50
2022-11-24T00:41:54.049Z,1.50
2022-11-24T00:42:55.881Z,1.50
2022-11-24T00:43:58.236Z,1.50
2022-11-24T00:45:00.050Z,1.50
2022-11-24T00:46:02.196Z,1.50
2022-11-24T00:47:04.120Z,1.50
2022-11-24T00:48:06.205Z,1.50
2022-11-24T00:49:08.027Z,1.50
2022-11-24T00:50:10.190Z,1.50
2022-11-24T00:51:13.749Z,1.50
2022-11-24T00:52:15.557Z,1.50
2022-11-24T00:53:17.392Z,1.50
2022-11-24T00:54:19.281Z,1.50
2022-11-24T00:55:21.542Z,1.50
2022-11-24T00:56:24.575Z,1.50
2022-11-24T00:57:26.398Z,1.60
2022-11-24T00:58:28.227Z,1.60
2022-11-24T00:59:32.545Z,1.60
2022-11-24T01:00:34.362Z,1.60
2022-11-24T01:01:36.463Z,1.60
2022-11-24T01:02:38.372Z,1.60
2022-11-24T01:03:40.338Z,1.60
2022-11-24T01:04:42.155Z,1.60
2022-11-24T01:05:44.039Z,1.60
2022-11-24T01:06:45.876Z,1.60
2022-11-24T01:07:47.726Z,1.60
2022-11-24T01:08:50.065Z,1.70
2022-11-24T01:09:51.882Z,1.70
2022-11-24T01:10:53.691Z,1.70
2022-11-24T01:12:01.289Z,1.70
2022-11-24T01:13:03.384Z,1.70
2022-11-24T01:14:05.246Z,1.70
2022-11-24T01:15:07.474Z,1.70
2022-11-24T01:16:32.179Z,1.70
2022-11-24T01:17:34.000Z,1.70
2022-11-24T01:18:35.824Z,1.70
2022-11-24T01:19:37.691Z,1.70
2022-11-24T01:20:39.504Z,1.70
2022-11-24T01:21:41.341Z,1.70
2022-11-24T01:22:43.234Z,1.70
2022-11-24T01:23:45.123Z,1.70
2022-11-24T01:24:46.936Z,1.70
2022-11-24T01:25:48.745Z,1.80
2022-11-24T01:26:50.598Z,1.70
2022-11-24T01:27:52.724Z,1.70
2022-11-24T01:28:58.634Z,1.70
2022-11-24T01:30:00.706Z,1.70
2022-11-24T01:31:06.238Z,1.70
2022-11-24T01:32:08.213Z,1.70
2022-11-24T01:33:10.046Z,1.70
2022-11-24T01:34:13.015Z,1.70
2022-11-24T01:35:15.013Z,1.60
2022-11-24T01:36:17.379Z,1.60
2022-11-24T01:37:19.212Z,1.60
2022-11-24T01:38:21.516Z,1.60
2022-11-24T01:39:23.432Z,1.50
2022-11-24T01:40:25.246Z,1.50
2022-11-24T01:41:27.393Z,1.50
2022-11-24T01:42:46.386Z,1.50
2022-11-24T01:43:49.119Z,1.50
2022-11-24T01:45:29.124Z,1.50
2022-11-24T01:46:48.105Z,1.60
2022-11-24T01:47:49.994Z,1.50
2022-11-24T01:49:18.012Z,1.50
2022-11-24T01:50:20.299Z,1.40
2022-11-24T01:51:29.392Z,1.30
2022-11-24T01:52:45.925Z,1.30
2022-11-24T01:53:59.035Z,1.20
2022-11-24T01:55:06.289Z,1.20
2022-11-24T01:56:08.882Z,1.00
2022-11-24T01:57:18.355Z,0.90
2022-11-24T01:58:24.237Z,0.90
2022-11-24T01:59:26.696Z,0.90
2022-11-24T02:00:28.589Z,0.90
2022-11-24T02:01:32.195Z,0.90
2022-11-24T02:02:34.375Z,0.80
2022-11-24T02:03:38.902Z,0.80
2022-11-24T02:04:41.821Z,0.80
2022-11-24T02:05:56.088Z,0.90
2022-11-24T02:07:01.583Z,0.90
2022-11-24T02:08:04.067Z,0.90
2022-11-24T02:09:19.235Z,0.80
2022-11-24T02:10:21.924Z,0.80
2022-11-24T02:11:26.507Z,0.80
2022-11-24T02:12:29.202Z,0.80
2022-11-24T02:13:33.365Z,0.70
2022-11-24T02:14:38.151Z,0.80
2022-11-24T02:15:40.017Z,0.70
2022-11-24T02:16:44.248Z,0.80
2022-11-24T02:17:46.097Z,0.80
2022-11-24T02:18:48.100Z,0.90
2022-11-24T02:19:59.129Z,0.80
2022-11-24T02:21:01.671Z,0.80
2022-11-24T02:22:04.685Z,0.80
2022-11-24T02:23:24.354Z,0.70
2022-11-24T02:24:37.085Z,0.70
2022-11-24T02:25:45.091Z,0.70
2022-11-24T02:26:49.585Z,0.70
2022-11-24T02:27:54.211Z,0.70
2022-11-24T02:28:56.895Z,0.70
2022-11-24T02:29:59.373Z,0.60
2022-11-24T02:31:02.034Z,0.60
2022-11-24T02:32:06.541Z,0.70
2022-11-24T02:33:09.921Z,0.70
2022-11-24T02:34:11.786Z,0.70
2022-11-24T02:35:15.170Z,0.70
2022-11-24T02:36:17.038Z,0.70
2022-11-24T02:37:18.855Z,0.70
2022-11-24T02:38:30.320Z,0.80
2022-11-24T02:39:32.191Z,0.80
2022-11-24T02:40:34.093Z,0.80
2022-11-24T02:41:36.314Z,0.80
2022-11-24T02:42:43.992Z,0.80
2022-11-24T02:43:58.564Z,0.80
2022-11-24T02:45:01.574Z,0.80
2022-11-24T02:46:03.828Z,0.70
2022-11-24T02:47:09.169Z,0.70
2022-11-24T02:48:10.995Z,0.70
2022-11-24T02:49:12.893Z,0.80
2022-11-24T02:50:14.807Z,0.80
2022-11-24T02:51:16.815Z,0.80
2022-11-24T02:52:19.705Z,0.80
2022-11-24T02:53:21.555Z,0.90
2022-11-24T02:54:23.479Z,0.80
2022-11-24T02:55:25.531Z,0.80
2022-11-24T02:56:27.748Z,0.80
2022-11-24T02:57:29.682Z,0.80
2022-11-24T02:58:31.605Z,0.80
2022-11-24T02:59:33.530Z,0.80
2022-11-24T03:00:35.409Z,0.80
2022-11-24T03:01:37.278Z,0.80
2022-11-24T03:02:39.201Z,0.80
2022-11-24T03:03:41.054Z,0.80
2022-11-24T03:04:44.627Z,0.80
2022-11-24T03:05:46.476Z,0.80
2022-11-24T03:06:48.361Z,0.80
2022-11-24T03:07:50.269Z,0.80
2022-11-24T03:08:52.173Z,0.80
2022-11-24T03:09:54.068Z,0.80
2022-11-24T03:10:56.069Z,0.80
2022-11-24T03:11:57.935Z,0.70
2022-11-24T03:12:59.731Z,0.70
2022-11-24T03:14:02.035Z,0.70
2022-11-24T03:15:05.418Z,0.70
2022-11-24T03:16:10.457Z,0.70
2022-11-24T03:17:12.832Z,0.70
2022-11-24T03:18:14.646Z,0.70
2022-11-24T03:19:16.501Z,0.80
2022-11-24T03:20:18.872Z,0.80
2022-11-24T03:21:20.830Z,0.80
2022-11-24T03:22:22.685Z,0.70
2022-11-24T03:23:24.500Z,0.70
2022-11-24T03:24:26.383Z,0.70
2022-11-24T03:25:28.290Z,0.70
2022-11-24T03:26:30.206Z,0.70
2022-11-24T03:27:32.194Z,0.70
2022-11-24T03:28:34.022Z,0.70
2022-11-24T03:29:35.933Z,0.70
2022-11-24T03:30:37.740Z,0.80
2022-11-24T03:31:39.733Z,0.80
2022-11-24T03:32:42.118Z,0.80
2022-11-24T03:33:43.974Z,0.80
2022-11-24T03:34:45.803Z,0.80
2022-11-24T03:35:47.661Z,0.80
2022-11-24T03:36:49.479Z,0.90
2022-11-24T03:37:51.391Z,0.90
2022-11-24T03:38:53.384Z,0.90
2022-11-24T03:39:55.262Z,0.90
2022-11-24T03:40:57.108Z,0.90
2022-11-24T03:41:58.962Z,0.90
2022-11-24T03:43:00.798Z,0.90
2022-11-24T03:44:02.814Z,0.90
2022-11-24T03:45:23.077Z,0.90
2022-11-24T03:46:26.872Z,0.90
2022-11-24T03:47:28.767Z,0.90
2022-11-24T03:48:31.012Z,0.90
2022-11-24T03:49:33.257Z,0.90
2022-11-24T03:50:35.271Z,0.90
2022-11-24T03:51:37.139Z,0.90
2022-11-24T03:52:39.017Z,0.90
2022-11-24T03:53:40.985Z,0.80
2022-11-24T03:54:42.956Z,0.80
2022-11-24T03:55:44.801Z,0.80
2022-11-24T03:56:47.499Z,0.80
2022-11-24T03:57:49.454Z,0.70
2022-11-24T03:58:51.298Z,0.70
2022-11-24T03:59:53.104Z,0.70
2022-11-24T04:00:56.101Z,0.70
2022-11-24T04:01:58.019Z,0.70
2022-11-24T04:02:59.966Z,0.70
2022-11-24T04:04:01.870Z,0.70
2022-11-24T04:05:04.061Z,0.70
2022-11-24T04:06:05.936Z,0.70
2022-11-24T04:07:07.785Z,0.70
2022-11-24T04:08:09.641Z,0.60
2022-11-24T04:09:11.658Z,0.60
2022-11-24T04:10:13.754Z,0.60
2022-11-24T04:11:35.598Z,0.60
2022-11-24T04:12:46.351Z,0.60
2022-11-24T04:13:48.262Z,0.60
2022-11-24T04:14:50.045Z,0.60
2022-11-24T04:15:52.553Z,0.60
2022-11-24T04:16:54.433Z,0.60
2022-11-24T04:17:57.050Z,0.60
2022-11-24T04:18:58.903Z,0.60
2022-11-24T04:20:00.667Z,0.60
2022-11-24T04:21:02.456Z,0.60
2022-11-24T04:22:04.262Z,0.70
2022-11-24T04:23:06.473Z,0.60
2022-11-24T04:24:08.374Z,0.60
2022-11-24T04:25:11.225Z,0.60
2022-11-24T04:26:13.705Z,0.60
2022-11-24T04:27:15.531Z,0.60
2022-11-24T04:28:17.376Z,0.60
2022-11-24T04:29:19.159Z,0.60
2022-11-24T04:30:22.553Z,0.60
2022-11-24T04:31:24.423Z,0.60
2022-11-24T04:32:26.258Z,0.60
2022-11-24T04:33:28.038Z,0.60
2022-11-24T04:34:29.800Z,0.60
2022-11-24T04:35:31.547Z,0.50
2022-11-24T04:36:33.349Z,0.50
2022-11-24T04:37:35.202Z,0.50
2022-11-24T04:39:24.143Z,0.50
2022-11-24T04:39:58.754Z,0.50
2022-11-24T04:41:04.268Z,0.50
2022-11-24T04:42:06.355Z,0.50
2022-11-24T04:43:09.125Z,0.50
2022-11-24T04:44:11.195Z,0.40
2022-11-24T04:45:13.024Z,0.40
2022-11-24T04:46:14.798Z,0.40
2022-11-24T04:47:20.607Z,0.40
2022-11-24T04:48:22.445Z,0.40
2022-11-24T04:49:24.274Z,0.40
2022-11-24T04:50:26.293Z,0.40
2022-11-24T04:51:28.134Z,0.40
2022-11-24T04:52:30.316Z,0.40
2022-11-24T04:53:32.250Z,0.40
2022-11-24T04:54:34.159Z,0.40
2022-11-24T04:55:39.121Z,0.40
2022-11-24T04:56:41.883Z,0.40
2022-11-24T04:57:43.709Z,0.40
2022-11-24T04:58:48.944Z,0.40
2022-11-24T04:59:51.613Z,0.40
2022-11-24T05:00:53.367Z,0.40
2022-11-24T05:01:55.227Z,0.40
2022-11-24T05:02:57.263Z,0.40
2022-11-24T05:03:59.754Z,0.40
2022-11-24T05:05:01.560Z,0.40
2022-11-24T05:06:03.786Z,0.40
2022-11-24T05:07:06.037Z,0.40
2022-11-24T05:08:08.916Z,0.40
2022-11-24T05:09:15.484Z,0.40
2022-11-24T05:10:35.546Z,0.40
2022-11-24T05:11:37.301Z,0.40
2022-11-24T05:12:39.546Z,0.40
2022-11-24T05:13:41.327Z,0.40
2022-11-24T05:14:43.092Z,0.40
2022-11-24T05:15:44.888Z,0.40
2022-11-24T05:16:46.788Z,0.40
2022-11-24T05:17:48.533Z,0.50
2022-11-24T05:18:50.295Z,0.50
2022-11-24T05:19:52.035Z,0.50
2022-11-24T05:20:53.790Z,0.50
2022-11-24T05:21:55.510Z,0.60
2022-11-24T05:23:01.927Z,0.60
2022-11-24T05:24:03.891Z,0.60
2022-11-24T05:25:05.902Z,0.60
2022-11-24T05:26:07.738Z,0.60
2022-11-24T05:27:09.441Z,0.60
2022-11-24T05:28:11.318Z,0.60
2022-11-24T05:29:13.072Z,0.60
2022-11-24T05:30:14.857Z,0.60
2022-11-24T05:31:16.641Z,0.60
2022-11-24T05:32:18.460Z,0.60
2022-11-24T05:33:22.997Z,0.60
2022-11-24T05:34:24.784Z,0.60
2022-11-24T05:35:26.561Z,0.70
2022-11-24T05:36:47.115Z,0.70
2022-11-24T05:37:48.938Z,0.70
2022-11-24T05:38:50.693Z,0.70
2022-11-24T05:39:54.568Z,0.80
2022-11-24T05:41:01.597Z,0.80
2022-11-24T05:42:25.836Z,0.80
2022-11-24T05:43:27.657Z,0.80
2022-11-24T05:44:29.396Z,0.80
2022-11-24T05:45:31.230Z,0.80
2022-11-24T05:46:33.040Z,0.80
2022-11-24T05:47:35.245Z,0.80
2022-11-24T05:48:36.938Z,0.80
2022-11-24T05:49:38.860Z,0.80
2022-11-24T05:50:40.864Z,0.80
2022-11-24T05:51:42.656Z,0.80
2022-11-24T05:52:44.728Z,0.90
2022-11-24T05:53:46.481Z,0.90
2022-11-24T05:54:48.309Z,0.90
2022-11-24T05:55:50.268Z,1.00
2022-11-24T05:56:52.010Z,1.00
2022-11-24T05:57:59.227Z,1.00
2022-11-24T05:59:03.128Z,1.00
2022-11-24T06:00:09.605Z,1.00
2022-11-24T06:01:11.361Z,1.10
2022-11-24T06:02:14.085Z,1.00
2022-11-24T06:03:16.023Z,1.10
2022-11-24T06:04:17.813Z,1.10
2022-11-24T06:05:19.588Z,1.10
2022-11-24T06:06:21.519Z,1.10
2022-11-24T06:07:23.350Z,1.10
2022-11-24T06:08:30.691Z,1.10
2022-11-24T06:09:35.221Z,1.20
2022-11-24T06:10:36.973Z,1.20
2022-11-24T06:11:38.998Z,1.20
2022-11-24T06:12:40.782Z,1.30
2022-11-24T06:13:43.066Z,1.30
2022-11-24T06:14:45.095Z,1.30
2022-11-24T06:15:46.837Z,1.30
2022-11-24T06:16:48.637Z,1.40
2022-11-24T06:17:55.713Z,1.40
2022-11-24T06:18:57.597Z,1.40
2022-11-24T06:19:59.328Z,1.40
2022-11-24T06:21:10.655Z,1.40
2022-11-24T06:22:13.201Z,1.40
2022-11-24T06:23:14.962Z,1.40
2022-11-24T06:24:16.673Z,1.40
2022-11-24T06:25:18.433Z,1.40
2022-11-24T06:26:20.279Z,1.40
2022-11-24T06:27:22.001Z,1.40
2022-11-24T06:28:23.760Z,1.40
2022-11-24T06:29:25.518Z,1.40
2022-11-24T06:30:27.277Z,1.40
2022-11-24T06:31:29.042Z,1.40
2022-11-24T06:32:30.929Z,1.50
2022-11-24T06:33:37.610Z,1.50
2022-11-24T06:34:39.427Z,1.50
2022-11-24T06:35:41.216Z,1.50
2022-11-24T06:36:43.069Z,1.60
2022-11-24T06:37:45.859Z,1.60
2022-11-24T06:38:47.596Z,1.60
2022-11-24T06:39:49.400Z,1.60
2022-11-24T06:40:59.215Z,1.60
2022-11-24T06:42:00.997Z,1.60
2022-11-24T06:43:02.772Z,1.60
2022-11-24T06:44:04.998Z,1.60
2022-11-24T06:45:09.278Z,1.60
2022-11-24T06:46:12.576Z,1.60
2022-11-24T06:47:14.914Z,1.60
2022-11-24T06:48:16.720Z,1.60
2022-11-24T06:49:18.508Z,1.60
2022-11-24T06:50:20.356Z,1.60
2022-11-24T06:51:22.101Z,1.60
2022-11-24T06:52:23.816Z,1.60
2022-11-24T06:53:25.609Z,1.60
2022-11-24T06:54:27.312Z,1.60
2022-11-24T06:55:29.056Z,1.60
2022-11-24T06:56:30.860Z,1.60
2022-11-24T06:57:32.565Z,1.60
2022-11-24T06:58:34.944Z,1.60
2022-11-24T06:59:36.688Z,1.60
2022-11-24T07:00:39.350Z,1.60
2022-11-24T07:01:41.165Z,1.60
2022-11-24T07:02:46.008Z,1.60
2022-11-24T07:03:48.523Z,1.60
2022-11-24T07:04:50.298Z,1.60
2022-11-24T07:05:58.927Z,1.60
2022-11-24T07:07:00.662Z,1.60
2022-11-24T07:08:02.436Z,1.70
2022-11-24T07:09:04.195Z,1.70
2022-11-24T07:10:06.625Z,1.70
2022-11-24T07:11:10.223Z,1.70
2022-11-24T07:12:11.981Z,1.70
2022-11-24T07:13:13.727Z,1.70
2022-11-24T07:14:15.459Z,1.70
2022-11-24T07:15:17.229Z,1.70
2022-11-24T07:16:22.036Z,1.70
2022-11-24T07:17:23.925Z,1.70
2022-11-24T07:18:25.665Z,1.70
2022-11-24T07:19:27.422Z,1.70
2022-11-24T07:20:29.198Z,1.70
2022-11-24T07:21:30.981Z,1.70
2022-11-24T07:22:32.980Z,1.70
2022-11-24T07:23:34.764Z,1.70
2022-11-24T07:24:36.815Z,1.70
2022-11-24T07:25:38.741Z,1.80
2022-11-24T07:26:40.527Z,1.80
2022-11-24T07:27:42.267Z,1.80
2022-11-24T07:28:44.101Z,1.80
2022-11-24T07:29:45.831Z,1.80
2022-11-24T07:30:47.578Z,1.90
2022-11-24T07:31:50.049Z,1.80
2022-11-24T07:32:58.219Z,1.80
2022-11-24T07:33:59.995Z,1.90
2022-11-24T07:35:01.734Z,1.80
2022-11-24T07:36:05.124Z,1.90
2022-11-24T07:37:06.849Z,1.80
2022-11-24T07:38:08.587Z,1.80
2022-11-24T07:39:10.335Z,1.80
2022-11-24T07:40:12.341Z,1.90
2022-11-24T07:41:15.897Z,1.90
2022-11-24T07:42:17.598Z,1.90
2022-11-24T07:43:20.387Z,1.90
2022-11-24T07:44:22.253Z,1.90
2022-11-24T07:45:25.192Z,2.00
2022-11-24T07:46:26.988Z,2.00
2022-11-24T07:47:28.753Z,2.00
2022-11-24T07:48:30.597Z,2.00
2022-11-24T07:49:32.356Z,2.10
2022-11-24T07:50:34.127Z,2.10
2022-11-24T07:51:36.918Z,2.10
2022-11-24T07:52:39.402Z,2.10
2022-11-24T07:53:41.172Z,2.10
2022-11-24T07:54:42.898Z,2.20
2022-11-24T07:55:44.757Z,2.20
2022-11-24T07:56:49.098Z,2.30
2022-11-24T07:57:50.834Z,2.20
2022-11-24T07:58:53.127Z,2.30
2022-11-24T07:59:55.997Z,2.30
2022-11-24T08:00:58.065Z,2.30
2022-11-24T08:01:59.843Z,2.40
2022-11-24T08:03:01.771Z,2.30
2022-11-24T08:04:03.638Z,2.30
2022-11-24T08:05:06.070Z,2.30
2022-11-24T08:06:23.606Z,2.40
2022-11-24T08:07:27.152Z,2.40
2022-11-24T08:08:33.235Z,2.40
2022-11-24T08:09:34.996Z,2.40
2022-11-24T08:10:36.761Z,2.40
2022-11-24T08:11:38.494Z,2.40
2022-11-24T08:12:41.081Z,2.40
2022-11-24T08:13:44.284Z,2.40
2022-11-24T08:14:46.018Z,2.50
2022-11-24T08:15:47.797Z,2.40
2022-11-24T08:16:49.550Z,2.40
2022-11-24T08:17:51.456Z,2.50
2022-11-24T08:18:55.098Z,2.50
2022-11-24T08:19:56.842Z,2.50
2022-11-24T08:20:59.837Z,2.50
2022-11-24T08:22:01.567Z,2.50
2022-11-24T08:23:03.451Z,2.50
2022-11-24T08:24:05.709Z,2.60
2022-11-24T08:25:07.986Z,2.60
2022-11-24T08:26:15.748Z,2.60
2022-11-24T08:27:18.529Z,2.60
2022-11-24T08:28:20.335Z,2.60
2022-11-24T08:29:22.070Z,2.60
2022-11-24T08:30:23.943Z,2.70
2022-11-24T08:31:32.620Z,2.70
2022-11-24T08:32:34.616Z,2.70
2022-11-24T08:33:37.051Z,2.70
2022-11-24T08:34:39.011Z,2.70
2022-11-24T08:35:40.760Z,2.70
2022-11-24T08:36:42.555Z,2.70
2022-11-24T08:37:44.361Z,2.70
2022-11-24T08:38:46.708Z,2.70
2022-11-24T08:39:48.503Z,2.70
2022-11-24T08:40:50.251Z,2.70
2022-11-24T08:41:51.981Z,2.70
2022-11-24T08:42:58.169Z,2.70
2022-11-24T08:43:59.892Z,2.80
2022-11-24T08:45:17.489Z,2.80
2022-11-24T08:46:23.112Z,2.80
2022-11-24T08:47:24.881Z,2.80
2022-11-24T08:48:26.940Z,2.80
2022-11-24T08:49:28.838Z,2.80
2022-11-24T08:50:30.618Z,2.80
2022-11-24T08:51:32.381Z,2.70
2022-11-24T08:52:34.181Z,2.80
2022-11-24T08:53:36.129Z,2.70
2022-11-24T08:54:37.880Z,2.80
2022-11-24T08:55:39.584Z,2.80
2022-11-24T08:56:42.342Z,2.80
2022-11-24T08:57:44.142Z,2.90
2022-11-24T08:58:45.922Z,2.90
2022-11-24T08:59:47.635Z,2.90
2022-11-24T09:00:49.352Z,2.90
2022-11-24T09:01:51.157Z,2.90
2022-11-24T09:02:55.430Z,2.90
2022-11-24T09:03:57.455Z,2.90
2022-11-24T09:04:59.178Z,2.90
2022-11-24T09:06:01.680Z,2.90
2022-11-24T09:07:03.444Z,2.90
2022-11-24T09:08:05.456Z,2.90
2022-11-24T09:09:07.234Z,2.90
2022-11-24T09:10:09.165Z,2.90
2022-11-24T09:11:14.609Z,2.90
2022-11-24T09:12:16.543Z,2.90
2022-11-24T09:13:18.328Z,2.90
2022-11-24T09:14:20.059Z,2.90
2022-11-24T09:15:22.875Z,2.90
2022-11-24T09:16:27.897Z,2.90
2022-11-24T09:17:29.680Z,2.90
2022-11-24T09:18:31.515Z,2.90
2022-11-24T09:19:33.532Z,2.90
2022-11-24T09:20:35.595Z,3.00
2022-11-24T09:21:40.348Z,3.00
2022-11-24T09:22:43.074Z,3.00
2022-11-24T09:23:46.890Z,3.00
2022-11-24T09:24:48.611Z,3.00
2022-11-24T09:25:50.316Z,3.00
2022-11-24T09:26:55.441Z,3.10
2022-11-24T09:27:57.393Z,3.10
2022-11-24T09:29:00.544Z,3.10
2022-11-24T09:30:03.059Z,3.10
2022-11-24T09:31:06.913Z,3.10
2022-11-24T09:32:08.759Z,3.20
2022-11-24T09:33:10.473Z,3.20
2022-11-24T09:34:15.441Z,3.20
2022-11-24T09:35:17.352Z,3.20
2022-11-24T09:36:19.411Z,3.30
2022-11-24T09:37:21.133Z,3.30
2022-11-24T09:38:23.223Z,3.30
2022-11-24T09:39:24.958Z,3.30
2022-11-24T09:40:27.179Z,3.30
2022-11-24T09:42:02.295Z,3.40
2022-11-24T09:43:25.460Z,3.40
2022-11-24T09:45:00.807Z,3.40
2022-11-24T09:46:40.572Z,3.50
2022-11-24T09:47:45.442Z,3.50
2022-11-24T09:48:52.597Z,3.50
2022-11-24T09:50:10.189Z,3.60
2022-11-24T09:51:14.267Z,3.60
2022-11-24T09:52:23.013Z,3.60
2022-11-24T09:53:59.870Z,3.70
2022-11-24T09:55:04.906Z,3.70
2022-11-24T09:56:29.141Z,3.70
2022-11-24T09:57:37.607Z,3.70
2022-11-24T09:59:05.279Z,3.70
2022-11-24T10:00:12.973Z,3.70
2022-11-24T10:01:30.028Z,3.80
2022-11-24T10:02:32.285Z,3.70
2022-11-24T10:03:43.529Z,3.80
2022-11-24T10:04:47.139Z,3.80
2022-11-24T10:05:51.253Z,3.80
2022-11-24T10:07:22.703Z,3.90
2022-11-24T10:08:36.813Z,3.80
2022-11-24T10:09:57.038Z,3.80
2022-11-24T10:11:02.163Z,3.80
2022-11-24T10:12:38.944Z,3.80
2022-11-24T10:13:57.836Z,3.80
2022-11-24T10:15:33.689Z,3.80
2022-11-24T10:16:35.423Z,3.80
2022-11-24T10:17:55.620Z,3.90
2022-11-24T10:19:14.462Z,3.90
2022-11-24T10:21:02.588Z,3.90
2022-11-24T10:22:16.197Z,4.00
2022-11-24T10:23:49.388Z,4.00
2022-11-24T10:25:13.706Z,4.00
2022-11-24T10:26:37.639Z,4.10
2022-11-24T10:27:46.716Z,4.10
2022-11-24T10:28:54.903Z,4.10
2022-11-24T10:29:57.253Z,4.10
2022-11-24T10:31:15.807Z,4.10
2022-11-24T10:32:37.812Z,4.20
2022-11-24T10:33:40.251Z,4.20
2022-11-24T10:34:45.287Z,4.20
2022-11-24T10:35:57.824Z,4.20
2022-11-24T10:37:11.565Z,4.20
2022-11-24T10:38:45.711Z,4.20
2022-11-24T10:40:10.839Z,4.30
2022-11-24T10:41:25.147Z,4.30
2022-11-24T10:42:38.062Z,4.30
2022-11-24T10:43:42.076Z,4.30
2022-11-24T10:44:44.149Z,4.30
2022-11-24T10:45:46.075Z,4.30
2022-11-24T10:46:48.058Z,4.30
2022-11-24T10:47:50.617Z,4.30
2022-11-24T10:49:00.724Z,4.40
2022-11-24T10:50:04.688Z,4.40
2022-11-24T10:51:38.657Z,4.40
2022-11-24T10:52:44.968Z,4.40
2022-11-24T10:53:48.669Z,4.40
2022-11-24T10:54:57.579Z,4.40
2022-11-24T10:56:01.803Z,4.40
2022-11-24T10:57:03.916Z,4.40
2022-11-24T10:58:16.854Z,4.50
2022-11-24T10:59:24.706Z,4.40
2022-11-24T11:00:26.366Z,4.40
2022-11-24T11:01:33.363Z,4.50
2022-11-24T11:02:38.140Z,4.50
2022-11-24T11:03:49.539Z,4.50
2022-11-24T11:04:51.272Z,4.50
2022-11-24T11:05:52.980Z,4.50
2022-11-24T11:07:19.563Z,4.50
2022-11-24T11:08:29.301Z,4.50
2022-11-24T11:09:31.033Z,4.50
2022-11-24T11:10:32.828Z,4.60
2022-11-24T11:11:36.361Z,4.60
2022-11-24T11:12:45.413Z,4.60
2022-11-24T11:14:01.519Z,4.70
2022-11-24T11:15:25.197Z,4.70
2022-11-24T11:16:42.808Z,4.70
2022-11-24T11:17:45.013Z,4.80
2022-11-24T11:18:49.496Z,4.80
2022-11-24T11:20:00.056Z,4.80
2022-11-24T11:21:05.209Z,4.90
2022-11-24T11:22:12.919Z,4.90
2022-11-24T11:23:21.087Z,4.90
2022-11-24T11:24:22.864Z,4.90
2022-11-24T11:25:35.462Z,4.90
2022-11-24T11:26:39.453Z,4.90
2022-11-24T11:27:42.385Z,5.00
2022-11-24T11:34:53.515Z,5.00
2022-11-24T11:35:57.959Z,5.00
2022-11-24T11:37:00.202Z,5.00
2022-11-24T11:38:12.586Z,5.00
2022-11-24T11:39:36.551Z,5.00
2022-11-24T11:40:42.697Z,5.00
2022-11-24T11:41:48.062Z,5.00
2022-11-24T11:43:09.917Z,5.00
2022-11-24T11:44:27.103Z,5.00
2022-11-24T11:45:33.705Z,5.10
2022-11-24T11:46:35.829Z,5.10
2022-11-24T11:47:53.355Z,5.10
2022-11-24T11:48:55.115Z,5.10
2022-11-24T11:49:57.504Z,5.10
2022-11-24T11:51:22.696Z,5.10
2022-11-24T11:53:02.615Z,5.10
2022-11-24T11:54:32.413Z,5.10
2022-11-24T11:56:02.190Z,5.20
2022-11-24T11:57:10.350Z,5.20
2022-11-24T11:58:41.267Z,5.20
2022-11-24T12:00:15.701Z,5.20
2022-11-24T12:01:45.610Z,5.20
2022-11-24T12:03:05.977Z,5.20
2022-11-24T12:04:39.731Z,5.30
2022-11-24T12:06:03.627Z,5.30
2022-11-24T12:07:31.204Z,5.30
2022-11-24T12:09:18.594Z,5.30
2022-11-24T12:10:32.525Z,5.30
2022-11-24T12:11:57.399Z,5.30
2022-11-24T12:13:01.864Z,5.30
2022-11-24T12:14:40.511Z,5.30
2022-11-24T12:15:56.405Z,5.40
2022-11-24T12:17:14.939Z,5.40
2022-11-24T12:18:59.390Z,5.40
2022-11-24T12:20:17.921Z,5.40
2022-11-24T12:21:27.097Z,5.50
2022-11-24T12:22:35.791Z,5.50
2022-11-24T12:24:00.252Z,5.50
2022-11-24T12:25:25.382Z,5.50
2022-11-24T12:26:57.171Z,5.50
2022-11-24T12:28:26.615Z,5.50
2022-11-24T12:29:37.385Z,5.50
2022-11-24T12:30:56.710Z,5.50
2022-11-24T12:32:35.154Z,5.50
2022-11-24T12:33:47.541Z,5.50
2022-11-24T12:34:55.869Z,5.50
2022-11-24T12:36:10.446Z,5.50
2022-11-24T12:37:53.460Z,5.50
2022-11-24T12:39:10.795Z,5.50
2022-11-24T12:40:47.067Z,5.60
2022-11-24T12:42:13.190Z,5.60
2022-11-24T12:43:35.067Z,5.70
2022-11-24T12:44:48.427Z,5.70
2022-11-24T12:45:53.676Z,5.70
2022-11-24T12:47:13.734Z,5.70
2022-11-24T12:48:37.508Z,5.70
2022-11-24T12:49:39.257Z,5.70
2022-11-24T12:50:44.317Z,5.70
2022-11-24T12:52:05.397Z,5.70
2022-11-24T12:53:19.106Z,5.70
2022-11-24T12:54:21.740Z,5.70
2022-11-24T12:55:24.344Z,5.70
2022-11-24T12:56:49.701Z,5.80
2022-11-24T12:58:16.188Z,5.80
2022-11-24T12:59:38.163Z,5.80
2022-11-24T13:01:00.959Z,5.90
2022-11-24T13:02:48.361Z,5.90
2022-11-24T13:04:20.436Z,5.90
2022-11-24T13:05:25.195Z,6.00
2022-11-24T13:06:45.840Z,6.00
2022-11-24T13:07:58.417Z,6.00
2022-11-24T13:09:10.723Z,6.10
2022-11-24T13:10:53.519Z,6.10
2022-11-24T13:11:53.327Z,6.10
2022-11-24T13:13:00.410Z,6.10
2022-11-24T13:14:34.162Z,6.10
2022-11-24T13:17:50.254Z,6.10
2022-11-24T13:19:16.467Z,6.10
2022-11-24T13:20:21.279Z,6.10
2022-11-24T13:21:50.063Z,6.10
2022-11-24T13:22:58.376Z,6.10
2022-11-24T13:24:06.322Z,6.10
2022-11-24T13:25:14.169Z,6.10
2022-11-24T13:26:29.475Z,6.10
2022-11-24T13:27:41.311Z,6.10
2022-11-24T13:29:17.980Z,6.10
2022-11-24T13:30:52.019Z,6.20
2022-11-24T13:31:55.245Z,6.20
2022-11-24T13:33:16.646Z,6.20
2022-11-24T13:34:43.415Z,6.20
2022-11-24T13:36:04.093Z,6.20
2022-11-24T13:37:31.746Z,6.20
2022-11-24T13:38:46.615Z,6.20
2022-11-24T13:39:54.463Z,6.30
2022-11-24T13:41:13.379Z,6.30
2022-11-24T13:42:41.035Z,6.30
2022-11-24T13:44:15.233Z,6.30
2022-11-24T13:45:38.835Z,6.30
2022-11-24T13:47:07.038Z,6.30
2022-11-24T13:48:21.895Z,6.30
2022-11-24T13:49:24.751Z,6.30
2022-11-24T13:50:51.469Z,6.30
2022-11-24T13:52:17.674Z,6.30
2022-11-24T13:53:44.228Z,6.30
2022-11-24T13:54:46.041Z,6.30
2022-11-24T13:56:00.609Z,6.30
2022-11-24T13:57:35.407Z,6.40
2022-11-24T13:58:43.729Z,6.40
2022-11-24T13:59:45.555Z,6.40
2022-11-24T14:01:19.533Z,6.40
2022-11-24T14:02:24.088Z,6.30
2022-11-24T14:03:36.075Z,6.30
2022-11-24T14:04:39.544Z,6.30
2022-11-24T14:05:48.978Z,6.30
2022-11-24T14:06:54.880Z,6.20
2022-11-24T14:07:56.894Z,6.20
2022-11-24T14:09:01.803Z,6.20
2022-11-24T14:10:03.792Z,6.20
2022-11-24T14:11:14.588Z,6.30
2022-11-24T14:12:20.805Z,6.30
2022-11-24T14:13:34.910Z,6.30
2022-11-24T14:14:36.878Z,6.30
2022-11-24T14:15:38.856Z,6.20
2022-11-24T14:16:40.634Z,6.20
2022-11-24T14:17:42.352Z,6.20
2022-11-24T14:18:46.876Z,6.20
2022-11-24T14:19:51.148Z,6.20
2022-11-24T14:20:52.872Z,6.20
2022-11-24T14:21:54.602Z,6.20
2022-11-24T14:22:56.454Z,6.20
2022-11-24T14:24:08.096Z,6.20
2022-11-24T14:25:30.915Z,6.20
2022-11-24T14:26:35.269Z,6.10
2022-11-24T14:27:38.959Z,6.10
2022-11-24T14:28:41.371Z,6.10
2022-11-24T14:30:15.448Z,6.10
2022-11-24T14:31:25.620Z,6.10
2022-11-24T14:32:28.253Z,6.10
2022-11-24T14:33:30.014Z,6.20
2022-11-24T14:34:35.769Z,6.20
2022-11-24T14:35:43.908Z,6.30
2022-11-24T14:36:45.693Z,6.20
2022-11-24T14:37:47.450Z,6.20
2022-11-24T14:38:49.276Z,6.20
2022-11-24T14:39:51.096Z,6.20
2022-11-24T14:40:55.032Z,6.20
2022-11-24T14:42:07.914Z,6.20
2022-11-24T14:43:24.311Z,6.20
2022-11-24T14:44:29.803Z,6.20
2022-11-24T14:45:33.336Z,6.20
2022-11-24T14:46:36.141Z,6.20
2022-11-24T14:47:45.121Z,6.20
2022-11-24T14:48:52.666Z,6.20
2022-11-24T14:49:55.966Z,6.20
2022-11-24T14:51:14.935Z,6.10
2022-11-24T14:52:19.170Z,6.10
2022-11-24T14:53:26.218Z,6.10
2022-11-24T14:54:29.371Z,6.10
2022-11-24T14:55:35.235Z,6.10